sensor_id;sensor_type;location;lat;lon;timestamp;P1;durP1;ratioP1;P2;durP2;ratioP2
10825;SDS011;5466;55.898;14.094;2024-02-16T00:01:24;109.90;;;10.73;;
10825;SDS011;5466;55.898;14.094;2024-02-16T00:03:25;79.05;;;9.63;;
10825;SDS011;5466;55.898;14.094;2024-02-16T00:05:26;61.13;;;9.68;;
10825;SDS011;5466;55.898;14.094;2024-02-16T00:07:27;56.05;;;8.95;;
10825;SDS011;5466;55.898;14.094;2024-02-16T00:09:27;99.13;;;10.68;;
10825;SDS011;5466;55.898;14.094;2024-02-16T00:11:28;55.88;;;8.88;;
10825;SDS011;5466;55.898;14.094;2024-02-16T00:13:29;80.65;;;10.40;;
10825;SDS011;5466;55.898;14.094;2024-02-16T00:15:29;62.33;;;10.38;;
10825;SDS011;5466;55.898;14.094;2024-02-16T00:17:30;43.78;;;9.75;;
10825;SDS011;5466;55.898;14.094;2024-02-16T00:19:31;63.97;;;10.23;;
10825;SDS011;5466;55.898;14.094;2024-02-16T00:21:31;83.80;;;10.27;;
10825;SDS011;5466;55.898;14.094;2024-02-16T00:23:32;63.67;;;9.50;;
10825;SDS011;5466;55.898;14.094;2024-02-16T00:25:33;68.97;;;10.40;;
10825;SDS011;5466;55.898;14.094;2024-02-16T00:27:34;59.33;;;10.60;;
10825;SDS011;5466;55.898;14.094;2024-02-16T00:29:35;55.85;;;9.90;;
10825;SDS011;5466;55.898;14.094;2024-02-16T00:31:36;60.47;;;9.68;;
10825;SDS011;5466;55.898;14.094;2024-02-16T00:33:38;73.70;;;10.18;;
10825;SDS011;5466;55.898;14.094;2024-02-16T00:35:38;66.68;;;10.88;;
10825;SDS011;5466;55.898;14.094;2024-02-16T00:37:39;74.88;;;11.02;;
10825;SDS011;5466;55.898;14.094;2024-02-16T00:39:40;67.43;;;11.90;;
10825;SDS011;5466;55.898;14.094;2024-02-16T00:41:40;85.05;;;10.70;;
10825;SDS011;5466;55.898;14.094;2024-02-16T00:43:41;71.85;;;9.82;;
10825;SDS011;5466;55.898;14.094;2024-02-16T00:45:44;95.15;;;11.52;;
10825;SDS011;5466;55.898;14.094;2024-02-16T00:47:45;105.63;;;11.93;;
10825;SDS011;5466;55.898;14.094;2024-02-16T00:49:46;96.68;;;12.57;;
10825;SDS011;5466;55.898;14.094;2024-02-16T00:51:47;68.75;;;11.27;;
10825;SDS011;5466;55.898;14.094;2024-02-16T00:53:48;76.72;;;11.27;;
10825;SDS011;5466;55.898;14.094;2024-02-16T00:55:49;75.90;;;10.88;;
10825;SDS011;5466;55.898;14.094;2024-02-16T00:57:49;89.32;;;11.00;;
10825;SDS011;5466;55.898;14.094;2024-02-16T00:59:50;102.55;;;12.45;;
10825;SDS011;5466;55.898;14.094;2024-02-16T01:01:50;72.65;;;11.95;;
10825;SDS011;5466;55.898;14.094;2024-02-16T01:03:54;119.50;;;11.90;;
10825;SDS011;5466;55.898;14.094;2024-02-16T01:05:55;75.18;;;11.90;;
10825;SDS011;5466;55.898;14.094;2024-02-16T01:07:55;80.57;;;11.15;;
10825;SDS011;5466;55.898;14.094;2024-02-16T01:09:56;105.60;;;11.65;;
10825;SDS011;5466;55.898;14.094;2024-02-16T01:11:57;107.68;;;14.25;;
10825;SDS011;5466;55.898;14.094;2024-02-16T01:13:57;117.38;;;13.18;;
10825;SDS011;5466;55.898;14.094;2024-02-16T01:15:58;126.78;;;13.15;;
10825;SDS011;5466;55.898;14.094;2024-02-16T01:17:59;136.05;;;13.00;;
10825;SDS011;5466;55.898;14.094;2024-02-16T01:20:03;110.13;;;12.40;;
10825;SDS011;5466;55.898;14.094;2024-02-16T01:22:05;120.13;;;13.95;;
10825;SDS011;5466;55.898;14.094;2024-02-16T01:24:05;113.28;;;12.55;;
10825;SDS011;5466;55.898;14.094;2024-02-16T01:26:06;140.13;;;14.13;;
10825;SDS011;5466;55.898;14.094;2024-02-16T01:28:07;107.72;;;12.50;;
10825;SDS011;5466;55.898;14.094;2024-02-16T01:30:07;101.40;;;12.88;;
10825;SDS011;5466;55.898;14.094;2024-02-16T01:32:08;116.05;;;12.55;;
10825;SDS011;5466;55.898;14.094;2024-02-16T01:34:09;110.35;;;12.85;;
10825;SDS011;5466;55.898;14.094;2024-02-16T01:36:10;151.43;;;14.50;;
10825;SDS011;5466;55.898;14.094;2024-02-16T01:38:11;138.95;;;12.70;;
10825;SDS011;5466;55.898;14.094;2024-02-16T01:40:11;125.78;;;11.18;;
10825;SDS011;5466;55.898;14.094;2024-02-16T01:42:14;148.38;;;16.35;;
10825;SDS011;5466;55.898;14.094;2024-02-16T01:44:14;118.93;;;13.68;;
10825;SDS011;5466;55.898;14.094;2024-02-16T01:46:16;132.07;;;13.90;;
10825;SDS011;5466;55.898;14.094;2024-02-16T01:48:17;136.27;;;14.85;;
10825;SDS011;5466;55.898;14.094;2024-02-16T01:50:18;106.07;;;11.63;;
10825;SDS011;5466;55.898;14.094;2024-02-16T01:52:19;132.57;;;13.38;;
10825;SDS011;5466;55.898;14.094;2024-02-16T01:54:20;78.53;;;11.43;;
10825;SDS011;5466;55.898;14.094;2024-02-16T01:56:21;104.30;;;12.65;;
10825;SDS011;5466;55.898;14.094;2024-02-16T01:58:22;116.30;;;12.23;;
10825;SDS011;5466;55.898;14.094;2024-02-16T02:00:22;106.95;;;12.68;;
10825;SDS011;5466;55.898;14.094;2024-02-16T02:02:23;103.22;;;11.40;;
10825;SDS011;5466;55.898;14.094;2024-02-16T02:04:24;80.72;;;12.25;;
10825;SDS011;5466;55.898;14.094;2024-02-16T02:06:26;73.93;;;11.75;;
10825;SDS011;5466;55.898;14.094;2024-02-16T02:08:27;79.65;;;12.57;;
10825;SDS011;5466;55.898;14.094;2024-02-16T02:10:27;87.43;;;11.98;;
10825;SDS011;5466;55.898;14.094;2024-02-16T02:12:28;93.85;;;11.43;;
10825;SDS011;5466;55.898;14.094;2024-02-16T02:14:28;83.53;;;12.15;;
10825;SDS011;5466;55.898;14.094;2024-02-16T02:16:29;103.82;;;12.45;;
10825;SDS011;5466;55.898;14.094;2024-02-16T02:18:30;85.00;;;11.10;;
10825;SDS011;5466;55.898;14.094;2024-02-16T02:20:30;88.30;;;11.80;;
10825;SDS011;5466;55.898;14.094;2024-02-16T02:22:31;94.30;;;12.15;;
10825;SDS011;5466;55.898;14.094;2024-02-16T02:24:32;90.13;;;11.73;;
10825;SDS011;5466;55.898;14.094;2024-02-16T02:26:32;90.55;;;11.68;;
10825;SDS011;5466;55.898;14.094;2024-02-16T02:28:33;66.38;;;11.75;;
10825;SDS011;5466;55.898;14.094;2024-02-16T02:30:34;72.43;;;11.52;;
10825;SDS011;5466;55.898;14.094;2024-02-16T02:32:34;60.70;;;11.27;;
10825;SDS011;5466;55.898;14.094;2024-02-16T02:34:35;78.65;;;12.02;;
10825;SDS011;5466;55.898;14.094;2024-02-16T02:36:39;73.97;;;12.90;;
10825;SDS011;5466;55.898;14.094;2024-02-16T02:38:40;117.43;;;13.77;;
10825;SDS011;5466;55.898;14.094;2024-02-16T02:40:41;109.22;;;13.63;;
10825;SDS011;5466;55.898;14.094;2024-02-16T02:42:41;109.35;;;13.85;;
10825;SDS011;5466;55.898;14.094;2024-02-16T02:44:42;159.55;;;16.48;;
10825;SDS011;5466;55.898;14.094;2024-02-16T02:46:49;163.82;;;17.05;;
10825;SDS011;5466;55.898;14.094;2024-02-16T02:48:50;95.93;;;13.57;;
10825;SDS011;5466;55.898;14.094;2024-02-16T02:50:51;150.55;;;16.20;;
10825;SDS011;5466;55.898;14.094;2024-02-16T02:52:52;165.82;;;15.60;;
10825;SDS011;5466;55.898;14.094;2024-02-16T02:54:52;255.00;;;20.80;;
10825;SDS011;5466;55.898;14.094;2024-02-16T02:56:53;302.55;;;21.40;;
10825;SDS011;5466;55.898;14.094;2024-02-16T02:58:54;197.07;;;17.02;;
10825;SDS011;5466;55.898;14.094;2024-02-16T03:00:54;268.92;;;19.58;;
10825;SDS011;5466;55.898;14.094;2024-02-16T03:02:55;266.42;;;19.35;;
10825;SDS011;5466;55.898;14.094;2024-02-16T03:04:56;280.10;;;21.25;;
10825;SDS011;5466;55.898;14.094;2024-02-16T03:06:57;277.20;;;22.13;;
10825;SDS011;5466;55.898;14.094;2024-02-16T03:08:58;329.55;;;20.77;;
10825;SDS011;5466;55.898;14.094;2024-02-16T03:10:59;267.45;;;18.90;;
10825;SDS011;5466;55.898;14.094;2024-02-16T03:13:01;274.55;;;21.13;;
10825;SDS011;5466;55.898;14.094;2024-02-16T03:15:02;260.38;;;19.65;;
10825;SDS011;5466;55.898;14.094;2024-02-16T03:17:03;256.83;;;22.67;;
10825;SDS011;5466;55.898;14.094;2024-02-16T03:19:05;217.73;;;17.92;;
10825;SDS011;5466;55.898;14.094;2024-02-16T03:21:08;248.07;;;20.55;;
10825;SDS011;5466;55.898;14.094;2024-02-16T03:23:15;283.70;;;20.30;;
10825;SDS011;5466;55.898;14.094;2024-02-16T03:25:16;254.45;;;23.23;;
10825;SDS011;5466;55.898;14.094;2024-02-16T03:27:17;289.58;;;22.83;;
10825;SDS011;5466;55.898;14.094;2024-02-16T03:29:17;242.35;;;18.38;;
10825;SDS011;5466;55.898;14.094;2024-02-16T03:31:19;281.63;;;21.25;;
10825;SDS011;5466;55.898;14.094;2024-02-16T03:33:22;291.40;;;19.95;;
10825;SDS011;5466;55.898;14.094;2024-02-16T03:35:22;272.02;;;19.38;;
10825;SDS011;5466;55.898;14.094;2024-02-16T03:37:23;267.42;;;21.92;;
10825;SDS011;5466;55.898;14.094;2024-02-16T03:39:24;228.13;;;16.45;;
10825;SDS011;5466;55.898;14.094;2024-02-16T03:41:25;315.90;;;20.25;;
10825;SDS011;5466;55.898;14.094;2024-02-16T03:43:25;333.27;;;19.02;;
10825;SDS011;5466;55.898;14.094;2024-02-16T03:45:26;304.77;;;21.33;;
10825;SDS011;5466;55.898;14.094;2024-02-16T03:47:28;260.38;;;16.17;;
10825;SDS011;5466;55.898;14.094;2024-02-16T03:49:28;212.10;;;16.75;;
10825;SDS011;5466;55.898;14.094;2024-02-16T03:51:29;225.77;;;16.98;;
10825;SDS011;5466;55.898;14.094;2024-02-16T03:53:30;312.70;;;19.63;;
10825;SDS011;5466;55.898;14.094;2024-02-16T03:55:31;270.45;;;18.85;;
10825;SDS011;5466;55.898;14.094;2024-02-16T03:57:37;240.15;;;17.13;;
10825;SDS011;5466;55.898;14.094;2024-02-16T03:59:38;193.25;;;14.63;;
10825;SDS011;5466;55.898;14.094;2024-02-16T04:01:39;240.10;;;16.42;;
10825;SDS011;5466;55.898;14.094;2024-02-16T04:03:41;194.43;;;15.13;;
10825;SDS011;5466;55.898;14.094;2024-02-16T04:05:42;211.63;;;17.10;;
10825;SDS011;5466;55.898;14.094;2024-02-16T04:07:43;255.82;;;18.70;;
10825;SDS011;5466;55.898;14.094;2024-02-16T04:09:43;198.57;;;15.38;;
10825;SDS011;5466;55.898;14.094;2024-02-16T04:11:45;311.98;;;19.00;;
10825;SDS011;5466;55.898;14.094;2024-02-16T04:13:46;277.30;;;17.08;;
10825;SDS011;5466;55.898;14.094;2024-02-16T04:15:48;247.93;;;16.10;;
10825;SDS011;5466;55.898;14.094;2024-02-16T04:17:49;322.15;;;19.48;;
10825;SDS011;5466;55.898;14.094;2024-02-16T04:19:49;232.10;;;15.90;;
10825;SDS011;5466;55.898;14.094;2024-02-16T04:21:50;278.10;;;20.08;;
10825;SDS011;5466;55.898;14.094;2024-02-16T04:23:50;303.13;;;20.70;;
10825;SDS011;5466;55.898;14.094;2024-02-16T04:25:51;176.57;;;14.60;;
10825;SDS011;5466;55.898;14.094;2024-02-16T04:27:52;277.58;;;20.52;;
10825;SDS011;5466;55.898;14.094;2024-02-16T04:29:53;321.20;;;20.63;;
10825;SDS011;5466;55.898;14.094;2024-02-16T04:31:53;337.60;;;22.83;;
10825;SDS011;5466;55.898;14.094;2024-02-16T04:33:54;280.15;;;18.38;;
10825;SDS011;5466;55.898;14.094;2024-02-16T04:35:55;287.50;;;18.92;;
10825;SDS011;5466;55.898;14.094;2024-02-16T04:37:55;160.88;;;14.32;;
10825;SDS011;5466;55.898;14.094;2024-02-16T04:39:56;332.17;;;20.60;;
10825;SDS011;5466;55.898;14.094;2024-02-16T04:41:57;326.35;;;20.17;;
10825;SDS011;5466;55.898;14.094;2024-02-16T04:43:57;363.65;;;20.95;;
10825;SDS011;5466;55.898;14.094;2024-02-16T04:45:58;416.17;;;22.42;;
10825;SDS011;5466;55.898;14.094;2024-02-16T04:48:03;369.20;;;22.23;;
10825;SDS011;5466;55.898;14.094;2024-02-16T04:50:05;318.98;;;20.00;;
10825;SDS011;5466;55.898;14.094;2024-02-16T04:52:09;321.38;;;15.55;;
10825;SDS011;5466;55.898;14.094;2024-02-16T04:54:10;345.50;;;19.88;;
10825;SDS011;5466;55.898;14.094;2024-02-16T04:56:11;311.77;;;16.55;;
10825;SDS011;5466;55.898;14.094;2024-02-16T04:58:12;335.25;;;18.90;;
10825;SDS011;5466;55.898;14.094;2024-02-16T05:00:13;255.50;;;14.77;;
10825;SDS011;5466;55.898;14.094;2024-02-16T05:02:14;291.10;;;15.85;;
10825;SDS011;5466;55.898;14.094;2024-02-16T05:04:15;298.83;;;20.42;;
10825;SDS011;5466;55.898;14.094;2024-02-16T05:06:16;250.98;;;16.75;;
10825;SDS011;5466;55.898;14.094;2024-02-16T05:08:17;255.85;;;14.35;;
10825;SDS011;5466;55.898;14.094;2024-02-16T05:10:18;311.23;;;17.38;;
10825;SDS011;5466;55.898;14.094;2024-02-16T05:12:19;349.70;;;17.75;;
10825;SDS011;5466;55.898;14.094;2024-02-16T05:14:20;267.40;;;17.13;;
10825;SDS011;5466;55.898;14.094;2024-02-16T05:16:22;296.67;;;20.77;;
10825;SDS011;5466;55.898;14.094;2024-02-16T05:18:23;212.20;;;13.63;;
10825;SDS011;5466;55.898;14.094;2024-02-16T05:20:25;204.20;;;13.02;;
10825;SDS011;5466;55.898;14.094;2024-02-16T05:22:25;286.13;;;16.35;;
10825;SDS011;5466;55.898;14.094;2024-02-16T05:24:26;274.20;;;15.30;;
10825;SDS011;5466;55.898;14.094;2024-02-16T05:26:26;318.05;;;16.63;;
10825;SDS011;5466;55.898;14.094;2024-02-16T05:28:27;315.50;;;19.25;;
10825;SDS011;5466;55.898;14.094;2024-02-16T05:30:29;262.65;;;15.48;;
10825;SDS011;5466;55.898;14.094;2024-02-16T05:32:30;288.60;;;18.48;;
10825;SDS011;5466;55.898;14.094;2024-02-16T05:34:30;292.95;;;20.48;;
10825;SDS011;5466;55.898;14.094;2024-02-16T05:36:37;231.13;;;15.75;;
10825;SDS011;5466;55.898;14.094;2024-02-16T05:38:38;357.10;;;19.48;;
10825;SDS011;5466;55.898;14.094;2024-02-16T05:40:41;262.48;;;16.08;;
10825;SDS011;5466;55.898;14.094;2024-02-16T05:42:53;293.05;;;18.35;;
10825;SDS011;5466;55.898;14.094;2024-02-16T05:44:57;344.42;;;20.92;;
10825;SDS011;5466;55.898;14.094;2024-02-16T05:46:58;384.33;;;22.40;;
10825;SDS011;5466;55.898;14.094;2024-02-16T05:48:59;259.25;;;19.20;;
10825;SDS011;5466;55.898;14.094;2024-02-16T05:51:02;329.17;;;19.88;;
10825;SDS011;5466;55.898;14.094;2024-02-16T05:53:05;377.80;;;22.25;;
10825;SDS011;5466;55.898;14.094;2024-02-16T05:55:06;285.98;;;18.70;;
10825;SDS011;5466;55.898;14.094;2024-02-16T05:57:08;393.27;;;25.15;;
10825;SDS011;5466;55.898;14.094;2024-02-16T05:59:09;354.35;;;22.98;;
10825;SDS011;5466;55.898;14.094;2024-02-16T06:01:09;462.05;;;27.52;;
10825;SDS011;5466;55.898;14.094;2024-02-16T06:03:12;377.35;;;22.40;;
10825;SDS011;5466;55.898;14.094;2024-02-16T06:05:14;425.85;;;24.67;;
10825;SDS011;5466;55.898;14.094;2024-02-16T06:07:14;376.30;;;22.95;;
10825;SDS011;5466;55.898;14.094;2024-02-16T06:09:15;330.25;;;22.27;;
10825;SDS011;5466;55.898;14.094;2024-02-16T06:11:16;416.55;;;25.77;;
10825;SDS011;5466;55.898;14.094;2024-02-16T06:13:17;164.88;;;14.95;;
10825;SDS011;5466;55.898;14.094;2024-02-16T06:15:19;170.93;;;16.40;;
10825;SDS011;5466;55.898;14.094;2024-02-16T06:17:20;331.17;;;21.33;;
10825;SDS011;5466;55.898;14.094;2024-02-16T06:19:20;82.85;;;13.30;;
10825;SDS011;5466;55.898;14.094;2024-02-16T06:21:21;53.30;;;13.48;;
10825;SDS011;5466;55.898;14.094;2024-02-16T06:23:22;73.45;;;14.70;;
10825;SDS011;5466;55.898;14.094;2024-02-16T06:25:23;77.75;;;14.95;;
10825;SDS011;5466;55.898;14.094;2024-02-16T06:27:25;94.65;;;16.15;;
10825;SDS011;5466;55.898;14.094;2024-02-16T06:29:25;58.22;;;16.15;;
10825;SDS011;5466;55.898;14.094;2024-02-16T06:31:26;74.03;;;16.65;;
10825;SDS011;5466;55.898;14.094;2024-02-16T06:33:26;61.58;;;17.17;;
10825;SDS011;5466;55.898;14.094;2024-02-16T06:35:28;76.05;;;18.38;;
10825;SDS011;5466;55.898;14.094;2024-02-16T06:37:29;93.47;;;17.45;;
10825;SDS011;5466;55.898;14.094;2024-02-16T06:39:32;49.85;;;16.15;;
10825;SDS011;5466;55.898;14.094;2024-02-16T06:41:32;36.22;;;15.98;;
10825;SDS011;5466;55.898;14.094;2024-02-16T06:43:33;37.95;;;16.98;;
10825;SDS011;5466;55.898;14.094;2024-02-16T06:45:34;32.38;;;17.08;;
10825;SDS011;5466;55.898;14.094;2024-02-16T06:47:34;31.13;;;17.05;;
10825;SDS011;5466;55.898;14.094;2024-02-16T06:49:35;37.30;;;18.65;;
10825;SDS011;5466;55.898;14.094;2024-02-16T06:51:36;36.08;;;19.17;;
10825;SDS011;5466;55.898;14.094;2024-02-16T06:53:37;36.83;;;19.02;;
10825;SDS011;5466;55.898;14.094;2024-02-16T06:55:40;40.90;;;18.95;;
10825;SDS011;5466;55.898;14.094;2024-02-16T06:57:40;37.05;;;19.30;;
10825;SDS011;5466;55.898;14.094;2024-02-16T06:59:41;37.47;;;19.30;;
10825;SDS011;5466;55.898;14.094;2024-02-16T07:01:42;36.05;;;19.55;;
10825;SDS011;5466;55.898;14.094;2024-02-16T07:03:43;39.20;;;19.48;;
10825;SDS011;5466;55.898;14.094;2024-02-16T07:05:43;38.47;;;18.63;;
10825;SDS011;5466;55.898;14.094;2024-02-16T07:07:44;39.50;;;19.70;;
10825;SDS011;5466;55.898;14.094;2024-02-16T07:09:45;39.65;;;20.55;;
10825;SDS011;5466;55.898;14.094;2024-02-16T07:11:45;41.47;;;20.80;;
10825;SDS011;5466;55.898;14.094;2024-02-16T07:13:46;42.20;;;21.40;;
10825;SDS011;5466;55.898;14.094;2024-02-16T07:15:47;48.38;;;23.33;;
10825;SDS011;5466;55.898;14.094;2024-02-16T07:17:47;49.28;;;25.40;;
10825;SDS011;5466;55.898;14.094;2024-02-16T07:19:48;56.63;;;27.88;;
10825;SDS011;5466;55.898;14.094;2024-02-16T07:21:49;53.45;;;26.25;;
10825;SDS011;5466;55.898;14.094;2024-02-16T07:23:50;48.00;;;25.40;;
10825;SDS011;5466;55.898;14.094;2024-02-16T07:25:51;46.88;;;23.58;;
10825;SDS011;5466;55.898;14.094;2024-02-16T07:27:55;50.78;;;24.75;;
10825;SDS011;5466;55.898;14.094;2024-02-16T07:29:55;46.45;;;22.67;;
10825;SDS011;5466;55.898;14.094;2024-02-16T07:31:56;46.47;;;23.52;;
10825;SDS011;5466;55.898;14.094;2024-02-16T07:33:57;45.90;;;23.75;;
10825;SDS011;5466;55.898;14.094;2024-02-16T07:35:58;46.85;;;22.48;;
10825;SDS011;5466;55.898;14.094;2024-02-16T07:37:58;40.53;;;22.30;;
10825;SDS011;5466;55.898;14.094;2024-02-16T07:39:59;41.53;;;22.65;;
10825;SDS011;5466;55.898;14.094;2024-02-16T07:42:00;43.03;;;23.42;;
10825;SDS011;5466;55.898;14.094;2024-02-16T07:44:00;41.13;;;24.55;;
10825;SDS011;5466;55.898;14.094;2024-02-16T07:46:01;40.33;;;23.00;;
10825;SDS011;5466;55.898;14.094;2024-02-16T07:48:04;35.90;;;21.05;;
10825;SDS011;5466;55.898;14.094;2024-02-16T07:50:05;40.30;;;21.92;;
10825;SDS011;5466;55.898;14.094;2024-02-16T07:52:06;35.97;;;21.00;;
10825;SDS011;5466;55.898;14.094;2024-02-16T07:54:07;34.58;;;20.70;;
10825;SDS011;5466;55.898;14.094;2024-02-16T07:56:08;39.05;;;21.33;;
10825;SDS011;5466;55.898;14.094;2024-02-16T07:58:09;40.38;;;21.73;;
10825;SDS011;5466;55.898;14.094;2024-02-16T08:00:10;36.08;;;21.75;;
10825;SDS011;5466;55.898;14.094;2024-02-16T08:02:11;32.83;;;21.00;;
10825;SDS011;5466;55.898;14.094;2024-02-16T08:04:15;38.10;;;20.65;;
10825;SDS011;5466;55.898;14.094;2024-02-16T08:06:16;37.38;;;20.67;;
10825;SDS011;5466;55.898;14.094;2024-02-16T08:08:21;37.03;;;21.73;;
10825;SDS011;5466;55.898;14.094;2024-02-16T08:10:23;34.95;;;22.50;;
10825;SDS011;5466;55.898;14.094;2024-02-16T08:12:25;35.92;;;21.20;;
10825;SDS011;5466;55.898;14.094;2024-02-16T08:14:28;32.03;;;20.70;;
10825;SDS011;5466;55.898;14.094;2024-02-16T08:16:28;28.83;;;19.20;;
10825;SDS011;5466;55.898;14.094;2024-02-16T08:18:29;36.60;;;20.67;;
10825;SDS011;5466;55.898;14.094;2024-02-16T08:20:30;32.40;;;20.02;;
10825;SDS011;5466;55.898;14.094;2024-02-16T08:22:30;34.63;;;20.58;;
10825;SDS011;5466;55.898;14.094;2024-02-16T08:24:32;29.65;;;20.20;;
10825;SDS011;5466;55.898;14.094;2024-02-16T08:26:33;29.45;;;20.55;;
10825;SDS011;5466;55.898;14.094;2024-02-16T08:28:34;30.33;;;19.33;;
10825;SDS011;5466;55.898;14.094;2024-02-16T08:30:35;30.08;;;19.90;;
10825;SDS011;5466;55.898;14.094;2024-02-16T08:32:36;26.63;;;18.60;;
10825;SDS011;5466;55.898;14.094;2024-02-16T08:34:37;28.20;;;19.80;;
10825;SDS011;5466;55.898;14.094;2024-02-16T08:36:37;30.48;;;20.45;;
10825;SDS011;5466;55.898;14.094;2024-02-16T08:38:40;29.48;;;20.40;;
10825;SDS011;5466;55.898;14.094;2024-02-16T08:40:41;30.10;;;20.33;;
10825;SDS011;5466;55.898;14.094;2024-02-16T08:42:41;29.65;;;20.25;;
10825;SDS011;5466;55.898;14.094;2024-02-16T08:44:42;30.48;;;20.08;;
10825;SDS011;5466;55.898;14.094;2024-02-16T08:46:43;28.45;;;19.65;;
10825;SDS011;5466;55.898;14.094;2024-02-16T08:48:47;30.25;;;21.08;;
10825;SDS011;5466;55.898;14.094;2024-02-16T08:50:47;28.98;;;21.35;;
10825;SDS011;5466;55.898;14.094;2024-02-16T08:52:48;30.20;;;21.48;;
10825;SDS011;5466;55.898;14.094;2024-02-16T08:54:49;27.98;;;21.38;;
10825;SDS011;5466;55.898;14.094;2024-02-16T08:56:49;29.20;;;21.17;;
10825;SDS011;5466;55.898;14.094;2024-02-16T08:58:50;28.30;;;21.35;;
10825;SDS011;5466;55.898;14.094;2024-02-16T09:00:51;30.70;;;22.52;;
10825;SDS011;5466;55.898;14.094;2024-02-16T09:02:52;29.77;;;21.67;;
10825;SDS011;5466;55.898;14.094;2024-02-16T09:04:53;30.00;;;22.27;;
10825;SDS011;5466;55.898;14.094;2024-02-16T09:06:54;29.02;;;21.17;;
10825;SDS011;5466;55.898;14.094;2024-02-16T09:08:55;29.20;;;22.08;;
10825;SDS011;5466;55.898;14.094;2024-02-16T09:10:56;26.40;;;20.88;;
10825;SDS011;5466;55.898;14.094;2024-02-16T09:12:57;27.80;;;20.15;;
10825;SDS011;5466;55.898;14.094;2024-02-16T09:14:57;25.02;;;19.63;;
10825;SDS011;5466;55.898;14.094;2024-02-16T09:16:58;27.50;;;20.63;;
10825;SDS011;5466;55.898;14.094;2024-02-16T09:18:59;25.35;;;19.73;;
10825;SDS011;5466;55.898;14.094;2024-02-16T09:21:00;26.30;;;19.92;;
10825;SDS011;5466;55.898;14.094;2024-02-16T09:23:00;22.27;;;17.23;;
10825;SDS011;5466;55.898;14.094;2024-02-16T09:25:01;22.05;;;17.55;;
10825;SDS011;5466;55.898;14.094;2024-02-16T09:27:03;24.23;;;18.65;;
10825;SDS011;5466;55.898;14.094;2024-02-16T09:29:04;25.15;;;17.33;;
10825;SDS011;5466;55.898;14.094;2024-02-16T09:31:06;23.88;;;17.30;;
10825;SDS011;5466;55.898;14.094;2024-02-16T09:33:08;18.05;;;15.65;;
10825;SDS011;5466;55.898;14.094;2024-02-16T09:35:09;17.92;;;14.48;;
10825;SDS011;5466;55.898;14.094;2024-02-16T09:37:09;16.83;;;14.73;;
10825;SDS011;5466;55.898;14.094;2024-02-16T09:39:12;18.45;;;14.52;;
10825;SDS011;5466;55.898;14.094;2024-02-16T09:41:13;16.67;;;14.88;;
10825;SDS011;5466;55.898;14.094;2024-02-16T09:43:49;17.27;;;14.98;;
10825;SDS011;5466;55.898;14.094;2024-02-16T09:45:43;20.00;;;14.80;;
10825;SDS011;5466;55.898;14.094;2024-02-16T09:47:45;19.40;;;14.68;;
10825;SDS011;5466;55.898;14.094;2024-02-16T09:49:49;17.55;;;14.30;;
10825;SDS011;5466;55.898;14.094;2024-02-16T09:51:49;19.63;;;14.93;;
10825;SDS011;5466;55.898;14.094;2024-02-16T09:53:50;18.10;;;14.75;;
10825;SDS011;5466;55.898;14.094;2024-02-16T09:55:57;17.10;;;14.70;;
10825;SDS011;5466;55.898;14.094;2024-02-16T09:57:58;22.60;;;15.27;;
10825;SDS011;5466;55.898;14.094;2024-02-16T10:00:00;19.77;;;17.17;;
10825;SDS011;5466;55.898;14.094;2024-02-16T10:02:02;23.98;;;18.40;;
10825;SDS011;5466;55.898;14.094;2024-02-16T10:04:06;23.98;;;19.30;;
10825;SDS011;5466;55.898;14.094;2024-02-16T10:06:10;23.30;;;19.88;;
10825;SDS011;5466;55.898;14.094;2024-02-16T10:08:12;23.10;;;18.77;;
10825;SDS011;5466;55.898;14.094;2024-02-16T10:10:22;22.23;;;19.00;;
10825;SDS011;5466;55.898;14.094;2024-02-16T10:12:24;22.88;;;20.17;;
10825;SDS011;5466;55.898;14.094;2024-02-16T10:14:25;25.42;;;20.73;;
10825;SDS011;5466;55.898;14.094;2024-02-16T10:16:26;24.30;;;20.52;;
10825;SDS011;5466;55.898;14.094;2024-02-16T10:18:29;23.77;;;20.42;;
10825;SDS011;5466;55.898;14.094;2024-02-16T10:20:31;22.20;;;19.95;;
10825;SDS011;5466;55.898;14.094;2024-02-16T10:22:32;22.55;;;19.25;;
10825;SDS011;5466;55.898;14.094;2024-02-16T10:24:33;27.38;;;17.23;;
10825;SDS011;5466;55.898;14.094;2024-02-16T10:26:34;22.35;;;18.98;;
10825;SDS011;5466;55.898;14.094;2024-02-16T10:28:39;22.15;;;19.05;;
10825;SDS011;5466;55.898;14.094;2024-02-16T10:30:40;26.05;;;20.90;;
10825;SDS011;5466;55.898;14.094;2024-02-16T10:32:44;23.63;;;20.75;;
10825;SDS011;5466;55.898;14.094;2024-02-16T10:34:45;25.90;;;20.35;;
10825;SDS011;5466;55.898;14.094;2024-02-16T10:36:47;26.00;;;20.65;;
10825;SDS011;5466;55.898;14.094;2024-02-16T10:38:48;26.02;;;21.05;;
10825;SDS011;5466;55.898;14.094;2024-02-16T10:40:51;23.50;;;19.88;;
10825;SDS011;5466;55.898;14.094;2024-02-16T10:42:52;22.20;;;19.17;;
10825;SDS011;5466;55.898;14.094;2024-02-16T10:44:54;23.80;;;19.33;;
10825;SDS011;5466;55.898;14.094;2024-02-16T10:46:55;21.58;;;19.02;;
10825;SDS011;5466;55.898;14.094;2024-02-16T10:48:56;22.33;;;19.67;;
10825;SDS011;5466;55.898;14.094;2024-02-16T10:50:57;22.27;;;19.88;;
10825;SDS011;5466;55.898;14.094;2024-02-16T10:53:00;22.73;;;20.08;;
10825;SDS011;5466;55.898;14.094;2024-02-16T10:55:18;22.70;;;19.83;;
10825;SDS011;5466;55.898;14.094;2024-02-16T10:57:19;22.50;;;18.25;;
10825;SDS011;5466;55.898;14.094;2024-02-16T10:59:20;21.30;;;19.10;;
10825;SDS011;5466;55.898;14.094;2024-02-16T11:01:21;23.20;;;20.30;;
10825;SDS011;5466;55.898;14.094;2024-02-16T11:03:24;22.52;;;19.40;;
10825;SDS011;5466;55.898;14.094;2024-02-16T11:05:31;24.15;;;20.60;;
10825;SDS011;5466;55.898;14.094;2024-02-16T11:07:36;24.75;;;20.33;;
10825;SDS011;5466;55.898;14.094;2024-02-16T11:09:38;23.35;;;20.63;;
10825;SDS011;5466;55.898;14.094;2024-02-16T11:11:40;20.85;;;18.60;;
10825;SDS011;5466;55.898;14.094;2024-02-16T11:13:54;23.27;;;19.23;;
10825;SDS011;5466;55.898;14.094;2024-02-16T11:15:59;23.08;;;18.80;;
10825;SDS011;5466;55.898;14.094;2024-02-16T11:18:03;19.90;;;16.35;;
10825;SDS011;5466;55.898;14.094;2024-02-16T11:20:04;21.02;;;18.63;;
10825;SDS011;5466;55.898;14.094;2024-02-16T11:22:07;21.73;;;17.67;;
10825;SDS011;5466;55.898;14.094;2024-02-16T11:24:13;18.75;;;16.85;;
10825;SDS011;5466;55.898;14.094;2024-02-16T11:26:14;19.75;;;17.02;;
10825;SDS011;5466;55.898;14.094;2024-02-16T11:28:17;21.20;;;17.45;;
10825;SDS011;5466;55.898;14.094;2024-02-16T11:30:19;20.52;;;18.10;;
10825;SDS011;5466;55.898;14.094;2024-02-16T11:32:20;21.30;;;18.05;;
10825;SDS011;5466;55.898;14.094;2024-02-16T11:34:21;22.63;;;19.33;;
10825;SDS011;5466;55.898;14.094;2024-02-16T11:36:27;21.77;;;18.27;;
10825;SDS011;5466;55.898;14.094;2024-02-16T11:38:30;18.80;;;16.80;;
10825;SDS011;5466;55.898;14.094;2024-02-16T11:40:32;22.45;;;16.52;;
10825;SDS011;5466;55.898;14.094;2024-02-16T11:42:35;17.02;;;15.02;;
10825;SDS011;5466;55.898;14.094;2024-02-16T11:44:36;19.08;;;15.77;;
10825;SDS011;5466;55.898;14.094;2024-02-16T11:46:39;17.50;;;15.40;;